createdAt,value
2016-04-12T00:00:33.284Z,18.92
2016-04-12T00:01:33.334Z,18.93
2016-04-12T00:02:33.400Z,18.88
2016-04-12T00:03:33.448Z,18.84
2016-04-12T00:04:33.514Z,18.89
2016-04-12T00:05:33.532Z,18.84
2016-04-12T00:06:33.597Z,18.89
2016-04-12T00:07:33.647Z,18.89
2016-04-12T00:08:33.842Z,18.88
2016-04-12T00:09:33.742Z,18.86
2016-04-12T00:10:33.807Z,18.86
2016-04-12T00:11:33.872Z,18.93
2016-04-12T00:12:33.906Z,18.9
2016-04-12T00:13:33.956Z,18.89
2016-04-12T00:14:34.005Z,18.89
2016-04-12T00:15:34.070Z,18.93
2016-04-12T00:16:34.182Z,18.9
2016-04-12T00:17:34.185Z,18.9
2016-04-12T00:18:34.219Z,18.89
2016-04-12T00:19:34.283Z,18.9
2016-04-12T00:20:34.318Z,19
2016-04-12T00:21:34.382Z,18.88
2016-04-12T00:22:34.433Z,18.9
2016-04-12T00:23:34.466Z,18.93
2016-04-12T00:24:34.516Z,18.93
2016-04-12T00:25:34.565Z,18.93
2016-04-12T00:26:34.632Z,18.88
2016-04-12T00:27:34.679Z,18.89
2016-04-12T00:28:34.730Z,18.93
2016-04-12T00:29:34.796Z,18.98
2016-04-12T00:30:34.858Z,19
2016-04-12T00:31:34.627Z,18.92
2016-04-12T00:32:34.970Z,18.93
2016-04-12T00:33:34.988Z,18.9
2016-04-12T00:34:35.037Z,18.98
2016-04-12T00:35:35.103Z,18.9
2016-04-12T00:36:35.137Z,18.9
2016-04-12T00:37:35.187Z,18.92
2016-04-12T00:38:35.252Z,18.98
2016-04-12T00:39:35.317Z,18.92
2016-04-12T00:40:35.367Z,19.02
2016-04-12T00:41:35.400Z,18.92
2016-04-12T00:42:35.451Z,19
2016-04-12T00:43:35.500Z,19
2016-04-12T00:44:35.564Z,18.96
2016-04-12T00:45:35.615Z,19
2016-04-12T00:46:35.727Z,18.98
2016-04-12T00:47:35.730Z,18.98
2016-04-12T00:48:35.778Z,18.93
2016-04-12T00:49:35.814Z,19.07
2016-04-12T00:50:35.863Z,19.04
2016-04-12T00:51:35.912Z,18.9
2016-04-12T00:52:35.977Z,18.89
2016-04-12T00:53:36.027Z,18.93
2016-04-12T00:54:36.077Z,19.07
2016-04-12T00:55:36.127Z,18.99
2016-04-12T00:56:36.191Z,19
2016-04-12T00:57:36.224Z,19
2016-04-12T00:58:36.291Z,18.95
2016-04-12T00:59:36.324Z,18.96
2016-04-12T01:00:36.389Z,18.99
2016-04-12T01:01:36.439Z,18.92
2016-04-12T01:02:36.488Z,18.99
2016-04-12T01:03:36.554Z,19.04
2016-04-12T01:04:36.587Z,19
2016-04-12T01:05:36.653Z,19
2016-04-12T01:06:36.702Z,18.89
2016-04-12T01:07:36.752Z,18.92
2016-04-12T01:08:36.801Z,18.99
2016-04-12T01:09:36.851Z,18.99
2016-04-12T01:10:36.917Z,19
2016-04-12T01:11:36.951Z,18.98
2016-04-12T01:12:36.265Z,18.95
2016-04-12T01:13:37.064Z,19.02
2016-04-12T01:14:37.098Z,18.93
2016-04-12T01:15:37.164Z,18.99
2016-04-12T01:16:37.214Z,18.92
2016-04-12T01:17:37.263Z,18.92
2016-04-12T01:18:37.375Z,18.99
2016-04-12T01:19:37.378Z,19.02
2016-04-12T01:20:37.411Z,19
2016-04-12T01:21:37.477Z,18.9
2016-04-12T01:22:37.527Z,18.98
2016-04-12T01:23:37.577Z,19.02
2016-04-12T01:24:37.625Z,18.98
2016-04-12T01:25:37.691Z,18.96
2016-04-12T01:26:37.741Z,18.99
2016-04-12T01:27:37.790Z,18.99
2016-04-12T01:28:37.840Z,19.02
2016-04-12T01:29:37.874Z,18.98
2016-04-12T01:30:37.938Z,18.99
2016-04-12T01:31:37.988Z,18.99
2016-04-12T01:32:38.038Z,18.99
2016-04-12T01:33:38.087Z,19
2016-04-12T01:34:38.152Z,18.98
2016-04-12T01:35:38.187Z,18.99
2016-04-12T01:36:38.251Z,18.96
2016-04-12T01:37:38.301Z,18.96
2016-04-12T01:38:38.351Z,18.99
2016-04-12T01:39:38.400Z,18.99
2016-04-12T01:40:38.465Z,18.98
2016-04-12T01:41:38.515Z,19.07
2016-04-12T01:42:38.580Z,19.07
2016-04-12T01:43:38.599Z,18.99
2016-04-12T01:44:38.664Z,19.02
2016-04-12T01:45:38.729Z,18.98
2016-04-12T01:46:38.778Z,19
2016-04-12T01:47:38.812Z,18.98
2016-04-12T01:48:38.722Z,19.04
2016-04-12T01:49:38.911Z,19.04
2016-04-12T01:50:38.805Z,19.07
2016-04-12T01:51:39.027Z,19
2016-04-12T01:52:39.107Z,18.98
2016-04-12T01:53:39.141Z,19
2016-04-12T01:54:39.175Z,19.04
2016-04-12T01:55:39.241Z,18.99
2016-04-12T01:56:39.291Z,19.07
2016-04-12T01:57:39.324Z,19
2016-04-12T01:58:39.373Z,18.98
2016-04-12T01:59:39.455Z,19.04
2016-04-12T02:00:39.488Z,19
2016-04-12T02:01:39.538Z,19
2016-04-12T02:02:39.588Z,18.99
2016-04-12T02:03:39.652Z,18.98
2016-04-12T02:04:39.687Z,19.02
2016-04-12T02:05:39.751Z,18.98
2016-04-12T02:06:39.801Z,19
2016-04-12T02:07:39.851Z,19.04
2016-04-12T02:08:39.900Z,19.04
2016-04-12T02:09:39.950Z,19.04
2016-04-12T02:10:39.998Z,18.99
2016-04-12T02:11:40.064Z,19.02
2016-04-12T02:12:40.098Z,19
2016-04-12T02:13:40.164Z,18.93
2016-04-12T02:14:40.213Z,18.99
2016-04-12T02:15:40.247Z,18.99
2016-04-12T02:16:40.312Z,18.95
2016-04-12T02:17:40.378Z,19
2016-04-12T02:18:40.412Z,19.02
2016-04-12T02:19:40.477Z,18.99
2016-04-12T02:20:40.511Z,19.04
2016-04-12T02:21:40.576Z,19.02
2016-04-12T02:22:40.625Z,19
2016-04-12T02:23:40.675Z,18.99
2016-04-12T02:24:40.725Z,18.99
2016-04-12T02:25:40.789Z,18.98
2016-04-12T02:26:40.839Z,19.02
2016-04-12T02:27:40.873Z,18.99
2016-04-12T02:28:40.938Z,18.92
2016-04-12T02:29:40.972Z,18.96
2016-04-12T02:30:41.037Z,18.93
2016-04-12T02:31:41.087Z,18.99
2016-04-12T02:32:41.152Z,18.99
2016-04-12T02:33:41.202Z,18.93
2016-04-12T02:34:41.252Z,19.02
2016-04-12T02:35:41.302Z,19
2016-04-12T02:36:41.351Z,18.99
2016-04-12T02:37:41.401Z,18.99
2016-04-12T02:38:41.449Z,19.04
2016-04-12T02:39:41.499Z,18.92
2016-04-12T02:40:41.565Z,18.99
2016-04-12T02:41:41.614Z,18.95
2016-04-12T02:42:41.664Z,19.02
2016-04-12T02:43:41.713Z,18.99
2016-04-12T02:44:41.763Z,19.04
2016-04-12T02:45:41.812Z,19.04
2016-04-12T02:46:41.878Z,18.92
2016-04-12T02:47:41.942Z,19.02
2016-04-12T02:48:41.992Z,18.93
2016-04-12T02:49:42.026Z,19
2016-04-12T02:50:42.106Z,19.02
2016-04-12T02:51:42.141Z,18.99
2016-04-12T02:52:42.191Z,18.93
2016-04-12T02:53:42.255Z,18.99
2016-04-12T02:54:42.305Z,19
2016-04-12T02:55:42.355Z,19
2016-04-12T02:56:42.404Z,18.99
2016-04-12T02:57:42.469Z,19.04
2016-04-12T02:58:42.487Z,18.92
2016-04-12T02:59:42.537Z,18.98
2016-04-12T03:00:42.618Z,19.02
2016-04-12T03:01:42.652Z,19.02
2016-04-12T03:02:42.701Z,19
2016-04-12T03:03:42.782Z,19
2016-04-12T03:04:42.816Z,18.99
2016-04-12T03:05:42.850Z,18.96
2016-04-12T03:06:42.915Z,18.89
2016-04-12T03:07:42.965Z,19.02
2016-04-12T03:08:43.014Z,18.9
2016-04-12T03:09:43.079Z,19.02
2016-04-12T03:10:43.114Z,19
2016-04-12T03:11:43.179Z,18.99
2016-04-12T03:12:43.229Z,19.07
2016-04-12T03:13:43.278Z,18.95
2016-04-12T03:14:43.343Z,18.93
2016-04-12T03:15:43.377Z,19
2016-04-12T03:16:43.426Z,18.92
2016-04-12T03:17:43.492Z,18.92
2016-04-12T03:18:43.541Z,18.98
2016-04-12T03:19:43.576Z,18.99
2016-04-12T03:20:43.642Z,19.02
2016-04-12T03:21:43.690Z,18.92
2016-04-12T03:22:43.725Z,18.95
2016-04-12T03:23:43.805Z,18.99
2016-04-12T03:24:43.839Z,18.96
2016-04-12T03:25:43.905Z,18.89
2016-04-12T03:26:43.953Z,19.07
2016-04-12T03:27:44.003Z,19.02
2016-04-12T03:28:44.083Z,19
2016-04-12T03:29:44.102Z,18.92
2016-04-12T03:30:44.152Z,19
2016-04-12T03:31:44.201Z,18.93
2016-04-12T03:32:44.282Z,19.04
2016-04-12T03:33:44.316Z,19.04
2016-04-12T03:34:44.350Z,19
2016-04-12T03:35:44.431Z,18.96
2016-04-12T03:36:44.465Z,19.09
2016-04-12T03:37:44.515Z,19.02
2016-04-12T03:38:44.565Z,18.99
2016-04-12T03:39:44.630Z,19.07
2016-04-12T03:40:44.679Z,19.07
2016-04-12T03:41:44.729Z,19.04
2016-04-12T03:42:44.762Z,18.99
2016-04-12T03:43:44.859Z,18.95
2016-04-12T03:44:44.893Z,19.07
2016-04-12T03:45:44.973Z,19.04
2016-04-12T03:46:45.007Z,19.04
2016-04-12T03:47:45.056Z,18.99
2016-04-12T03:48:45.091Z,18.99
2016-04-12T03:49:45.156Z,19.02
2016-04-12T03:50:45.205Z,19.02
2016-04-12T03:51:45.270Z,19.04
2016-04-12T03:52:45.305Z,19.02
2016-04-12T03:53:45.355Z,18.9
2016-04-12T03:54:45.420Z,19.02
2016-04-12T03:55:45.453Z,18.95
2016-04-12T03:56:45.503Z,18.98
2016-04-12T03:57:45.411Z,19.04
2016-04-12T03:58:45.462Z,19.04
2016-04-12T03:59:45.652Z,18.93
2016-04-12T04:00:45.717Z,18.92
2016-04-12T04:01:45.766Z,18.98
2016-04-12T04:02:45.832Z,18.99
2016-04-12T04:03:45.882Z,19
2016-04-12T04:04:45.916Z,19
2016-04-12T04:05:45.996Z,18.98
2016-04-12T04:06:46.029Z,18.9
2016-04-12T04:07:46.079Z,19
2016-04-12T04:08:46.146Z,18.98
2016-04-12T04:09:46.226Z,18.95
2016-04-12T04:10:45.479Z,18.92
2016-04-12T04:11:46.293Z,19.02
2016-04-12T04:12:46.343Z,18.99
2016-04-12T04:13:46.362Z,19.07
2016-04-12T04:14:46.473Z,18.89
2016-04-12T04:15:46.492Z,18.89
2016-04-12T04:16:46.556Z,18.93
2016-04-12T04:17:46.607Z,18.93
2016-04-12T04:18:46.625Z,19
2016-04-12T04:19:46.706Z,18.96
2016-04-12T04:20:46.755Z,18.86
2016-04-12T04:21:46.805Z,18.9
2016-04-12T04:22:46.854Z,18.88
2016-04-12T04:23:46.919Z,18.9
2016-04-12T04:24:46.953Z,18.9
2016-04-12T04:25:47.003Z,18.89
2016-04-12T04:26:47.069Z,18.9
2016-04-12T04:27:47.117Z,18.9
2016-04-12T04:28:47.167Z,18.9
2016-04-12T04:29:47.217Z,18.89
2016-04-12T04:30:47.250Z,18.98
2016-04-12T04:31:47.332Z,18.89
2016-04-12T04:32:47.381Z,18.88
2016-04-12T04:33:47.415Z,18.93
2016-04-12T04:34:47.465Z,18.96
2016-04-12T04:35:47.513Z,18.96
2016-04-12T04:36:47.580Z,18.88
2016-04-12T04:37:47.629Z,18.86
2016-04-12T04:38:47.679Z,18.89
2016-04-12T04:39:47.729Z,18.99
2016-04-12T04:40:47.777Z,18.96
2016-04-12T04:41:47.843Z,18.89
2016-04-12T04:42:47.862Z,18.92
2016-04-12T04:43:47.926Z,18.86
2016-04-12T04:44:47.992Z,18.9
2016-04-12T04:45:48.041Z,19.04
2016-04-12T04:46:47.918Z,18.9
2016-04-12T04:47:48.140Z,18.9
2016-04-12T04:48:48.190Z,18.93
2016-04-12T04:49:48.224Z,18.98
2016-04-12T04:50:48.289Z,18.96
2016-04-12T04:51:48.354Z,18.96
2016-04-12T04:52:48.388Z,18.9
2016-04-12T04:53:48.454Z,18.93
2016-04-12T04:54:48.487Z,18.96
2016-04-12T04:55:48.568Z,18.9
2016-04-12T04:56:48.602Z,18.9
2016-04-12T04:57:48.651Z,19.04
2016-04-12T04:58:48.717Z,18.93
2016-04-12T04:59:48.766Z,18.93
2016-04-12T05:00:48.800Z,18.93
2016-04-12T05:01:48.866Z,18.89
2016-04-12T05:02:48.915Z,18.9
2016-04-12T05:03:48.199Z,18.93
2016-04-12T05:04:49.030Z,18.9
2016-04-12T05:05:49.064Z,18.88
2016-04-12T05:06:49.144Z,18.93
2016-04-12T05:07:49.179Z,18.88
2016-04-12T05:08:49.213Z,18.89
2016-04-12T05:09:49.278Z,18.9
2016-04-12T05:10:49.337Z,18.9
2016-04-12T05:11:49.370Z,18.89
2016-04-12T05:12:49.437Z,18.9
2016-04-12T05:13:49.486Z,18.9
2016-04-12T05:14:49.534Z,18.96
2016-04-12T05:15:49.585Z,18.9
2016-04-12T05:16:49.634Z,18.9
2016-04-12T05:17:49.528Z,18.92
2016-04-12T05:18:49.749Z,18.89
2016-04-12T05:19:49.783Z,18.89
2016-04-12T05:20:49.848Z,18.93
2016-04-12T05:21:49.897Z,18.86
2016-04-12T05:22:49.931Z,18.88
2016-04-12T05:23:49.997Z,19.02
2016-04-12T05:24:50.062Z,18.86
2016-04-12T05:25:50.097Z,18.84
2016-04-12T05:26:50.146Z,18.88
2016-04-12T05:27:50.227Z,18.88
2016-04-12T05:28:50.260Z,18.88
2016-04-12T05:29:50.310Z,18.9
2016-04-12T05:30:50.375Z,18.89
2016-04-12T05:31:50.409Z,18.89
2016-04-12T05:32:50.537Z,18.9
2016-04-12T05:33:50.507Z,18.95
2016-04-12T05:34:50.558Z,18.95
2016-04-12T05:35:50.623Z,18.88
2016-04-12T05:36:50.672Z,18.84
2016-04-12T05:37:50.722Z,18.9
2016-04-12T05:38:50.787Z,18.88
2016-04-12T05:39:50.852Z,18.86
2016-04-12T05:40:50.887Z,18.83
2016-04-12T05:41:50.936Z,18.88
2016-04-12T05:42:50.235Z,18.89
2016-04-12T05:43:51.019Z,18.86
2016-04-12T05:44:51.085Z,18.83
2016-04-12T05:45:51.150Z,18.83
2016-04-12T05:46:51.200Z,18.95
2016-04-12T05:47:51.420Z,18.86
2016-04-12T05:48:51.298Z,18.9
2016-04-12T05:49:51.348Z,18.88
2016-04-12T05:50:51.381Z,18.88
2016-04-12T05:51:51.431Z,18.83
2016-04-12T05:52:51.512Z,18.84
2016-04-12T05:53:51.562Z,18.84
2016-04-12T05:54:51.596Z,18.84
2016-04-12T05:55:51.645Z,18.88
2016-04-12T05:56:51.695Z,18.89
2016-04-12T05:57:51.775Z,18.83
2016-04-12T05:58:51.810Z,18.86
2016-04-12T05:59:51.860Z,18.92
2016-04-12T06:00:51.924Z,18.92
2016-04-12T06:01:51.974Z,18.84
2016-04-12T06:02:51.868Z,18.86
2016-04-12T06:03:52.074Z,18.89
2016-04-12T06:04:52.123Z,18.89
2016-04-12T06:05:52.171Z,18.84
2016-04-12T06:06:52.222Z,18.92
2016-04-12T06:07:52.287Z,18.89
2016-04-12T06:08:52.321Z,18.88
2016-04-12T06:09:52.402Z,18.92
2016-04-12T06:10:52.420Z,18.89
2016-04-12T06:11:52.501Z,18.86
2016-04-12T06:12:52.550Z,18.88
2016-04-12T06:13:52.584Z,18.86
2016-04-12T06:14:52.634Z,18.88
2016-04-12T06:15:52.715Z,18.9
2016-04-12T06:16:52.748Z,18.83
2016-04-12T06:17:52.861Z,18.83
2016-04-12T06:18:52.864Z,18.78
2016-04-12T06:19:52.897Z,18.62
2016-04-12T06:20:52.947Z,18.6
2016-04-12T06:21:53.012Z,18.47
2016-04-12T06:22:53.047Z,18.56
2016-04-12T06:23:53.095Z,18.58
2016-04-12T06:24:53.177Z,18.52
2016-04-12T06:25:53.211Z,18.58
2016-04-12T06:26:53.260Z,18.6
2016-04-12T06:27:53.293Z,18.63
2016-04-12T06:28:53.375Z,18.65
2016-04-12T06:29:53.408Z,18.62
2016-04-12T06:30:53.458Z,18.6
2016-04-12T06:31:53.524Z,18.68
2016-04-12T06:32:53.635Z,18.6
2016-04-12T06:33:53.607Z,18.63
2016-04-12T06:34:53.688Z,18.59
2016-04-12T06:35:53.722Z,18.63
2016-04-12T06:36:53.787Z,18.6
2016-04-12T06:37:53.805Z,18.6
2016-04-12T06:38:53.855Z,18.65
2016-04-12T06:39:53.936Z,18.59
2016-04-12T06:40:53.970Z,18.52
2016-04-12T06:41:54.018Z,18.59
2016-04-12T06:42:54.084Z,18.55
2016-04-12T06:43:54.134Z,18.56
2016-04-12T06:44:54.168Z,18.53
2016-04-12T06:45:54.264Z,18.58
2016-04-12T06:46:54.329Z,18.5
2016-04-12T06:47:54.348Z,18.5
2016-04-12T06:48:54.412Z,18.58
2016-04-12T06:49:54.431Z,18.55
2016-04-12T06:50:54.497Z,18.53
2016-04-12T06:51:54.562Z,18.56
2016-04-12T06:52:54.595Z,18.58
2016-04-12T06:53:54.661Z,18.63
2016-04-12T06:54:54.711Z,18.53
2016-04-12T06:55:54.745Z,18.56
2016-04-12T06:56:54.809Z,18.56
2016-04-12T06:57:54.859Z,18.58
2016-04-12T06:58:54.908Z,18.52
2016-04-12T06:59:54.958Z,18.53
2016-04-12T07:00:55.007Z,18.52
2016-04-12T07:01:55.057Z,18.5
2016-04-12T07:02:55.247Z,18.53
2016-04-12T07:03:54.828Z,18.52
2016-04-12T07:04:55.221Z,18.49
2016-04-12T07:05:55.271Z,18.58
2016-04-12T07:06:55.305Z,18.52
2016-04-12T07:07:54.604Z,18.5
2016-04-12T07:08:55.420Z,18.56
2016-04-12T07:09:55.469Z,18.55
2016-04-12T07:10:55.503Z,18.52
2016-04-12T07:11:55.584Z,18.5
2016-04-12T07:12:55.634Z,18.56
2016-04-12T07:13:55.684Z,18.49
2016-04-12T07:14:55.717Z,18.5
2016-04-12T07:15:55.798Z,18.53
2016-04-12T07:16:55.848Z,18.52
2016-04-12T07:17:55.756Z,18.52
2016-04-12T07:18:55.931Z,18.53
2016-04-12T07:19:56.012Z,18.52
2016-04-12T07:20:56.031Z,18.59
2016-04-12T07:21:56.080Z,18.59
2016-04-12T07:22:56.145Z,18.6
2016-04-12T07:23:56.178Z,18.6
2016-04-12T07:24:56.244Z,18.58
2016-04-12T07:25:56.294Z,18.56
2016-04-12T07:26:56.328Z,18.65
2016-04-12T07:27:56.392Z,18.58
2016-04-12T07:28:56.458Z,18.6
2016-04-12T07:29:56.508Z,18.6
2016-04-12T07:30:56.557Z,18.68
2016-04-12T07:31:56.607Z,18.7
2016-04-12T07:32:56.641Z,18.56
2016-04-12T07:33:56.706Z,18.62
2016-04-12T07:34:56.771Z,18.62
2016-04-12T07:35:56.788Z,18.65
2016-04-12T07:36:56.855Z,18.6
2016-04-12T07:37:56.919Z,18.65
2016-04-12T07:38:56.954Z,18.63
2016-04-12T07:39:57.019Z,18.6
2016-04-12T07:40:57.052Z,18.68
2016-04-12T07:41:57.121Z,18.66
2016-04-12T07:42:57.234Z,18.7
2016-04-12T07:43:57.332Z,18.62
2016-04-12T07:44:57.429Z,18.71
2016-04-12T07:45:57.544Z,18.75
2016-04-12T07:46:57.607Z,18.68
2016-04-12T07:47:57.674Z,18.68
2016-04-12T07:48:57.756Z,18.77
2016-04-12T07:49:57.808Z,18.7
2016-04-12T07:50:57.875Z,18.68
2016-04-12T07:51:57.972Z,18.73
2016-04-12T07:52:58.028Z,18.65
2016-04-12T07:53:58.114Z,18.6
2016-04-12T07:54:58.139Z,18.49
2016-04-12T07:55:58.179Z,18.45
2016-04-12T07:56:58.266Z,18.44
2016-04-12T07:57:58.302Z,18.44
2016-04-12T07:58:58.338Z,18.4
2016-04-12T07:59:58.422Z,18.33
2016-04-12T08:00:58.457Z,18.35
2016-04-12T08:01:58.493Z,18.26
2016-04-12T08:02:58.560Z,18.08
2016-04-12T08:03:58.626Z,18.13
2016-04-12T08:04:58.660Z,18.03
2016-04-12T08:05:58.741Z,18.08
2016-04-12T08:06:58.777Z,18.15
2016-04-12T08:07:58.811Z,18.15
2016-04-12T08:08:58.881Z,18.13
2016-04-12T08:09:58.930Z,18.23
2016-04-12T08:10:58.965Z,18.26
2016-04-12T08:11:59.047Z,18.29
2016-04-12T08:12:59.095Z,18.26
2016-04-12T08:13:59.119Z,18.33
2016-04-12T08:14:59.169Z,18.29
2016-04-12T08:15:59.234Z,18.31
2016-04-12T08:16:59.284Z,18.38
2016-04-12T08:17:59.349Z,18.29
2016-04-12T08:18:59.366Z,18.28
2016-04-12T08:19:59.433Z,18.2
2016-04-12T08:20:59.497Z,18.15
2016-04-12T08:21:59.532Z,18.1
2016-04-12T08:22:59.580Z,18.16
2016-04-12T08:23:59.647Z,18.1
2016-04-12T08:24:59.680Z,18.07
2016-04-12T08:25:59.729Z,18.11
2016-04-12T08:26:59.795Z,18.19
2016-04-12T08:27:59.844Z,18.19
2016-04-12T08:28:59.879Z,18.28
2016-04-12T08:29:59.944Z,18.26
2016-04-12T08:30:59.993Z,18.23
2016-04-12T08:32:00.059Z,18.34
2016-04-12T08:33:00.092Z,18.35
2016-04-12T08:34:00.142Z,18.38
2016-04-12T08:35:00.207Z,18.41
2016-04-12T08:36:00.257Z,18.35
2016-04-12T08:37:00.290Z,18.4
2016-04-12T08:38:00.356Z,18.37
2016-04-12T08:39:00.406Z,18.38
2016-04-12T08:40:00.456Z,18.34
2016-04-12T08:41:00.504Z,18.29
2016-04-12T08:42:00.570Z,18.25
2016-04-12T08:43:00.604Z,18.22
2016-04-12T08:44:00.669Z,18.08
2016-04-12T08:45:00.703Z,18.19
2016-04-12T08:46:00.784Z,18.1
2016-04-12T08:47:00.833Z,18.2
2016-04-12T08:48:00.867Z,18.28
2016-04-12T08:49:00.948Z,18.26
2016-04-12T08:50:00.997Z,18.37
2016-04-12T08:51:01.016Z,18.35
2016-04-12T08:52:01.066Z,18.34
2016-04-12T08:53:01.146Z,18.4
2016-04-12T08:54:01.196Z,18.41
2016-04-12T08:55:01.246Z,18.4
2016-04-12T08:56:01.295Z,18.44
2016-04-12T08:57:01.344Z,18.44
2016-04-12T08:58:01.238Z,18.37
2016-04-12T08:59:01.413Z,18.43
2016-04-12T09:00:01.493Z,18.44
2016-04-12T09:01:01.543Z,18.49
2016-04-12T09:02:01.577Z,18.5
2016-04-12T09:03:01.657Z,18.52
2016-04-12T09:04:01.707Z,18.5
2016-04-12T09:05:01.740Z,18.5
2016-04-12T09:06:01.775Z,18.5
2016-04-12T09:07:01.903Z,18.58
2016-04-12T09:08:01.890Z,18.6
2016-04-12T09:09:01.959Z,18.66
2016-04-12T09:10:01.978Z,18.68
2016-04-12T09:11:02.028Z,18.62
2016-04-12T09:12:02.093Z,18.59
2016-04-12T09:13:02.127Z,18.65
2016-04-12T09:14:02.176Z,18.71
2016-04-12T09:15:02.257Z,18.68
2016-04-12T09:16:02.306Z,18.73
2016-04-12T09:17:02.341Z,18.77
2016-04-12T09:18:02.437Z,18.8
2016-04-12T09:19:02.455Z,18.78
2016-04-12T09:20:02.505Z,18.73
2016-04-12T09:21:02.554Z,18.81
2016-04-12T09:22:02.604Z,18.81
2016-04-12T09:23:02.685Z,18.75
2016-04-12T09:24:02.719Z,18.68
2016-04-12T09:25:02.768Z,18.7
2016-04-12T09:26:02.849Z,18.73
2016-04-12T09:27:02.899Z,18.83
2016-04-12T09:28:02.917Z,18.71
2016-04-12T09:29:02.966Z,18.74
2016-04-12T09:30:03.032Z,18.74
2016-04-12T09:31:03.051Z,18.74
2016-04-12T09:32:03.115Z,18.77
2016-04-12T09:33:03.181Z,18.8
2016-04-12T09:34:03.246Z,18.77
2016-04-12T09:35:03.312Z,18.86
2016-04-12T09:36:03.298Z,18.86
2016-04-12T09:37:03.379Z,18.89
2016-04-12T09:38:03.428Z,18.89
2016-04-12T09:39:03.478Z,18.86
2016-04-12T09:40:03.528Z,18.96
2016-04-12T09:41:03.578Z,18.93
2016-04-12T09:42:03.611Z,19
2016-04-12T09:43:03.676Z,18.89
2016-04-12T09:44:03.725Z,19
2016-04-12T09:45:03.775Z,18.99
2016-04-12T09:46:03.825Z,18.86
2016-04-12T09:47:03.906Z,18.98
2016-04-12T09:48:03.939Z,18.99
2016-04-12T09:49:04.005Z,19.02
2016-04-12T09:50:04.039Z,18.99
2016-04-12T09:51:04.088Z,18.98
2016-04-12T09:52:04.184Z,18.96
2016-04-12T09:53:04.202Z,19.04
2016-04-12T09:54:04.253Z,19
2016-04-12T09:55:04.302Z,18.96
2016-04-12T09:56:04.368Z,18.95
2016-04-12T09:57:04.416Z,19.08
2016-04-12T09:58:04.466Z,19.09
2016-04-12T09:59:04.501Z,19.11
2016-04-12T10:00:04.550Z,19.15
2016-04-12T10:01:04.616Z,19.07
2016-04-12T10:02:04.665Z,19.04
2016-04-12T10:03:04.698Z,19.07
2016-04-12T10:04:04.748Z,19.09
2016-04-12T10:05:04.813Z,19.08
2016-04-12T10:06:04.862Z,19.08
2016-04-12T10:07:04.913Z,19.09
2016-04-12T10:08:04.978Z,19.04
2016-04-12T10:09:05.012Z,19.11
2016-04-12T10:10:05.061Z,19.09
2016-04-12T10:11:05.126Z,19.14
2016-04-12T10:12:05.192Z,19.08
2016-04-12T10:13:05.241Z,19.04
2016-04-12T10:14:05.275Z,19.08
2016-04-12T10:15:05.371Z,19.24
2016-04-12T10:16:05.390Z,19.09
2016-04-12T10:17:05.439Z,19.21
2016-04-12T10:18:05.505Z,19.09
2016-04-12T10:19:05.538Z,19.16
2016-04-12T10:20:05.588Z,19.22
2016-04-12T10:21:05.638Z,19.24
2016-04-12T10:22:05.703Z,19.16
2016-04-12T10:23:05.753Z,19.14
2016-04-12T10:24:05.786Z,19.26
2016-04-12T10:25:05.866Z,19.12
2016-04-12T10:26:05.885Z,19.24
2016-04-12T10:27:05.982Z,19.21
2016-04-12T10:28:06.016Z,19.18
2016-04-12T10:29:06.049Z,19.12
2016-04-12T10:30:06.099Z,19.19
2016-04-12T10:31:06.165Z,19.14
2016-04-12T10:32:06.214Z,19.16
2016-04-12T10:33:06.279Z,19.14
2016-04-12T10:34:06.345Z,19.16
2016-04-12T10:35:06.362Z,19.18
2016-04-12T10:36:06.710Z,19.18
2016-04-12T10:37:06.478Z,19.24
2016-04-12T10:38:06.512Z,19.19
2016-04-12T10:39:06.576Z,19.15
2016-04-12T10:40:06.626Z,19.15
2016-04-12T10:41:06.675Z,19.22
2016-04-12T10:42:06.725Z,19.22
2016-04-12T10:43:06.791Z,19.22
2016-04-12T10:44:06.840Z,19.21
2016-04-12T10:45:06.875Z,19.15
2016-04-12T10:46:06.955Z,19.21
2016-04-12T10:47:08.098Z,19.15
2016-04-12T10:48:07.054Z,19.21
2016-04-12T10:49:07.167Z,19.18
2016-04-12T10:50:07.153Z,19.14
2016-04-12T10:51:07.186Z,19.08
2016-04-12T10:52:07.253Z,19.11
2016-04-12T10:53:07.286Z,19.18
2016-04-12T10:54:07.352Z,19.22
2016-04-12T10:55:07.417Z,19.12
2016-04-12T10:56:07.435Z,19.16
2016-04-12T10:57:07.500Z,19.16
2016-04-12T10:58:07.565Z,19.21
2016-04-12T10:59:07.599Z,19.18
2016-04-12T11:00:07.649Z,19.22
2016-04-12T11:01:07.713Z,19.18
2016-04-12T11:02:07.763Z,19.14
2016-04-12T11:03:07.813Z,19.24
2016-04-12T11:04:07.878Z,19.18
2016-04-12T11:05:07.928Z,19.14
2016-04-12T11:06:07.993Z,19.12
2016-04-12T11:07:08.011Z,19.11
2016-04-12T11:08:08.076Z,19.18
2016-04-12T11:09:08.143Z,19.21
2016-04-12T11:10:08.176Z,19.14
2016-04-12T11:11:08.225Z,19.15
2016-04-12T11:12:08.290Z,19.19
2016-04-12T11:13:08.339Z,19.14
2016-04-12T11:14:08.374Z,19.18
2016-04-12T11:15:08.439Z,19.15
2016-04-12T11:16:08.504Z,19.18
2016-04-12T11:17:08.538Z,19.18
2016-04-12T11:18:08.588Z,19.14
2016-04-12T11:19:08.637Z,19.14
2016-04-12T11:20:08.718Z,19.15
2016-04-12T11:21:08.752Z,19.12
2016-04-12T11:22:08.802Z,19.18
2016-04-12T11:23:08.852Z,19.11
2016-04-12T11:24:08.901Z,19.18
2016-04-12T11:25:08.950Z,19.12
2016-04-12T11:26:09.016Z,19.12
2016-04-12T11:27:09.065Z,19.18
2016-04-12T11:28:09.115Z,19.15
2016-04-12T11:29:09.164Z,19.12
2016-04-12T11:30:09.230Z,19.14
2016-04-12T11:31:09.264Z,19.14
2016-04-12T11:32:09.312Z,19.15
2016-04-12T11:33:09.394Z,19.26
2016-04-12T11:34:09.319Z,19.22
2016-04-12T11:35:09.477Z,19.22
2016-04-12T11:36:09.543Z,19.22
2016-04-12T11:37:09.592Z,19.15
2016-04-12T11:38:09.626Z,19.11
2016-04-12T11:39:09.690Z,19.15
2016-04-12T11:40:09.756Z,19.15
2016-04-12T11:41:09.775Z,19.27
2016-04-12T11:42:09.855Z,19.26
2016-04-12T11:43:09.889Z,19.27
2016-04-12T11:44:09.955Z,19.29
2016-04-12T11:45:10.004Z,19.27
2016-04-12T11:46:10.038Z,19.3
2016-04-12T11:47:10.103Z,19.31
2016-04-12T11:48:10.153Z,19.29
2016-04-12T11:49:10.062Z,19.24
2016-04-12T11:50:10.267Z,19.22
2016-04-12T11:51:11.317Z,19.26
2016-04-12T11:52:10.350Z,19.26
2016-04-12T11:53:10.416Z,19.27
2016-04-12T11:54:10.481Z,19.24
2016-04-12T11:55:10.500Z,19.26
2016-04-12T11:56:10.565Z,19.15
2016-04-12T11:57:10.599Z,19.16
2016-04-12T11:58:10.680Z,19.22
2016-04-12T11:59:10.730Z,19.19
2016-04-12T12:00:10.764Z,19.18
2016-04-12T12:01:10.672Z,19.11
2016-04-12T12:02:10.894Z,19.22
2016-04-12T12:03:10.912Z,19.09
2016-04-12T12:04:11.102Z,19.12
2016-04-12T12:05:11.027Z,19.07
2016-04-12T12:06:11.076Z,18.99
2016-04-12T12:07:11.126Z,19.04
2016-04-12T12:08:11.035Z,19.12
2016-04-12T12:09:11.240Z,18.93
2016-04-12T12:10:11.290Z,19.02
2016-04-12T12:11:11.370Z,18.99
2016-04-12T12:12:11.404Z,19.04
2016-04-12T12:13:11.455Z,19.09
2016-04-12T12:14:11.489Z,19.09
2016-04-12T12:15:11.553Z,19.04
2016-04-12T12:16:11.603Z,19.08
2016-04-12T12:17:11.653Z,19.07
2016-04-12T12:18:11.703Z,19.08
2016-04-12T12:19:11.815Z,19.12
2016-04-12T12:20:11.817Z,19.11
2016-04-12T12:21:11.867Z,19.09
2016-04-12T12:22:11.901Z,18.98
2016-04-12T12:23:11.950Z,18.92
2016-04-12T12:24:12.016Z,18.88
2016-04-12T12:25:12.081Z,18.9
2016-04-12T12:26:12.114Z,18.88
2016-04-12T12:27:12.180Z,18.88
2016-04-12T12:28:12.230Z,18.88
2016-04-12T12:29:12.263Z,18.88
2016-04-12T12:30:12.328Z,18.9
2016-04-12T12:31:12.378Z,18.89
2016-04-12T12:32:12.427Z,18.86
2016-04-12T12:33:12.493Z,18.9
2016-04-12T12:34:12.589Z,18.86
2016-04-12T12:35:12.591Z,18.93
2016-04-12T12:36:12.641Z,18.86
2016-04-12T12:37:12.676Z,18.86
2016-04-12T12:38:12.741Z,18.86
2016-04-12T12:39:12.790Z,18.84
2016-04-12T12:40:12.824Z,18.98
2016-04-12T12:41:12.889Z,18.9
2016-04-12T12:42:12.954Z,18.93
2016-04-12T12:43:12.988Z,18.98
2016-04-12T12:44:13.038Z,19.07
2016-04-12T12:45:13.104Z,19.07
2016-04-12T12:46:13.137Z,19.02
2016-04-12T12:47:13.202Z,19.07
2016-04-12T12:48:13.236Z,19.04
2016-04-12T12:49:13.161Z,18.99
2016-04-12T12:50:13.350Z,19.07
2016-04-12T12:51:13.401Z,19.09
2016-04-12T12:52:13.466Z,19.04
2016-04-12T12:53:13.514Z,19.08
2016-04-12T12:54:13.549Z,18.93
2016-04-12T12:55:13.614Z,19
2016-04-12T12:56:13.664Z,19
2016-04-12T12:57:13.713Z,19.08
2016-04-12T12:58:13.763Z,19
2016-04-12T12:59:13.828Z,19.09
2016-04-12T13:00:13.862Z,19.08